Time;durP1;ratioP1;P1;durP2;ratioP2;P2;SDS_P1;SDS_P2;PMS_P1;PMS_P2;Temp;Humidity;BMP_temperature;BMP_pressure;BME280_temperature;BME280_humidity;BME280_pressure;Samples;Min_cycle;Max_cycle;Signal;HPM_P1;HPM_P2
2021/07/06 00:00:16;;;;;;;2.13;1.87;;;18.90;99.90;;;;;;5046290;28;20981;-39
2021/07/06 00:02:43;;;;;;;1.70;1.60;;;19.00;99.90;;;;;;5046840;28;20437;-38
2021/07/06 00:05:09;;;;;;;1.90;1.67;;;19.00;99.90;;;;;;5047085;28;20420;-38
2021/07/06 00:07:35;;;;;;;1.63;1.53;;;19.00;99.90;;;;;;5047256;28;20428;-39
2021/07/06 00:10:02;;;;;;;3.93;1.90;;;19.10;99.90;;;;;;5047582;28;20424;-38
2021/07/06 00:12:28;;;;;;;2.10;2.00;;;19.10;99.90;;;;;;5035065;28;20501;-38
2021/07/06 00:14:54;;;;;;;1.60;1.50;;;19.10;99.90;;;;;;5045356;28;20429;-39
2021/07/06 00:17:20;;;;;;;1.60;1.50;;;19.00;99.90;;;;;;5046867;28;20282;-38
2021/07/06 00:19:48;;;;;;;2.20;1.70;;;19.00;99.90;;;;;;5047184;28;20431;-39
2021/07/06 00:22:13;;;;;;;2.03;1.80;;;19.00;99.90;;;;;;5047197;28;20485;-39
2021/07/06 00:24:39;;;;;;;2.10;1.90;;;19.00;99.90;;;;;;5045391;28;21005;-38
2021/07/06 00:27:05;;;;;;;1.93;1.83;;;18.90;99.90;;;;;;5035586;28;20281;-39
2021/07/06 00:29:32;;;;;;;1.70;1.60;;;18.90;99.90;;;;;;5046617;28;20182;-39
2021/07/06 00:31:58;;;;;;;2.00;1.90;;;18.80;99.90;;;;;;5046131;28;20181;-39
2021/07/06 00:34:23;;;;;;;2.07;1.77;;;18.80;99.90;;;;;;5045702;28;20442;-39
2021/07/06 00:36:49;;;;;;;1.50;1.40;;;18.80;99.90;;;;;;5047028;28;20270;-39
2021/07/06 00:39:15;;;;;;;1.80;1.70;;;18.90;99.90;;;;;;5045683;28;20337;-38
2021/07/06 00:41:40;;;;;;;1.73;1.63;;;19.00;99.90;;;;;;5037242;28;20214;-39
2021/07/06 00:44:13;;;;;;;2.13;1.70;;;19.00;99.90;;;;;;5044576;28;20596;-39
2021/07/06 00:46:39;;;;;;;1.50;1.40;;;19.00;99.90;;;;;;5047200;28;20178;-39
2021/07/06 00:49:05;;;;;;;1.57;1.47;;;19.00;99.90;;;;;;5045626;28;20427;-39
2021/07/06 00:51:30;;;;;;;1.53;1.43;;;19.00;99.90;;;;;;5046660;28;20212;-39
2021/07/06 00:53:56;;;;;;;2.07;1.87;;;19.00;99.90;;;;;;5046223;28;20239;-39
2021/07/06 00:56:22;;;;;;;1.53;1.43;;;19.00;99.90;;;;;;5039230;28;20197;-39
2021/07/06 00:58:48;;;;;;;2.63;2.00;;;19.00;99.90;;;;;;5044903;28;20232;-38
2021/07/06 01:01:15;;;;;;;1.87;1.70;;;19.00;99.90;;;;;;5046677;28;20245;-39
2021/07/06 01:03:41;;;;;;;2.83;1.87;;;19.00;99.90;;;;;;5045949;28;20511;-38
2021/07/06 01:06:08;;;;;;;1.63;1.53;;;18.90;99.90;;;;;;5046508;28;20806;-39
2021/07/06 01:08:34;;;;;;;2.13;1.60;;;18.90;99.90;;;;;;5046393;28;20518;-39
2021/07/06 01:11:00;;;;;;;1.90;1.57;;;18.90;99.90;;;;;;5041701;28;20932;-39
2021/07/06 01:13:28;;;;;;;2.50;1.30;;;18.90;99.90;;;;;;5041572;28;20269;-39
2021/07/06 01:15:53;;;;;;;4.10;1.80;;;18.90;99.90;;;;;;5044897;28;20911;-39
2021/07/06 01:18:19;;;;;;;1.50;1.40;;;19.00;99.90;;;;;;5046867;28;20432;-39
2021/07/06 01:20:54;;;;;;;3.73;1.50;;;19.00;99.90;;;;;;5046179;28;20209;-38
2021/07/06 01:23:21;;;;;;;1.57;1.47;;;19.00;99.90;;;;;;5025139;28;20255;-38
2021/07/06 01:25:52;;;;;;;1.83;1.73;;;19.00;99.90;;;;;;5041532;28;20424;-39
2021/07/06 01:28:18;;;;;;;1.57;1.47;;;19.00;99.90;;;;;;5041059;28;20421;-39
2021/07/06 01:30:45;;;;;;;1.30;1.20;;;19.10;99.90;;;;;;5043305;28;20916;-39
2021/07/06 01:33:19;;;;;;;1.50;1.40;;;19.00;99.90;;;;;;5045705;28;20424;-39
2021/07/06 01:35:45;;;;;;;2.07;1.50;;;19.00;99.90;;;;;;5045955;28;20428;-38
2021/07/06 01:38:11;;;;;;;4.20;1.60;;;19.00;99.90;;;;;;5045910;28;20420;-39
2021/07/06 01:40:36;;;;;;;1.47;1.23;;;19.10;99.90;;;;;;5046023;28;20225;-39
2021/07/06 01:43:03;;;;;;;1.70;1.60;;;19.10;99.90;;;;;;5034103;28;20206;-39
2021/07/06 01:45:30;;;;;;;1.80;1.70;;;19.10;99.90;;;;;;5048280;28;20276;-39
2021/07/06 01:47:58;;;;;;;1.37;1.27;;;19.10;99.90;;;;;;5031207;28;20436;-39
2021/07/06 01:50:36;;;;;;;1.40;1.30;;;19.10;99.90;;;;;;5050024;28;20926;-38
2021/07/06 01:53:05;;;;;;;1.33;1.20;;;19.10;99.90;;;;;;5049330;28;20416;-38
2021/07/06 01:55:34;;;;;;;1.43;1.30;;;19.00;99.90;;;;;;5050200;28;20423;-39
2021/07/06 01:58:02;;;;;;;1.53;1.43;;;19.00;99.90;;;;;;5037499;28;20433;-39
2021/07/06 02:00:31;;;;;;;1.90;1.80;;;18.90;99.90;;;;;;5049733;28;20525;-39
2021/07/06 02:02:58;;;;;;;1.63;1.33;;;18.90;99.90;;;;;;5049037;28;20845;-38
2021/07/06 02:05:32;;;;;;;1.33;1.23;;;18.90;99.90;;;;;;5048257;28;20506;-38
2021/07/06 02:07:58;;;;;;;1.63;1.23;;;18.90;99.90;;;;;;5036419;28;20870;-39
2021/07/06 02:10:25;;;;;;;1.90;1.30;;;19.00;99.90;;;;;;5049735;28;20420;-38
2021/07/06 02:12:51;;;;;;;1.50;1.20;;;19.00;99.90;;;;;;5041233;28;20636;-38
2021/07/06 02:15:17;;;;;;;1.50;1.40;;;19.00;99.90;;;;;;5047938;28;20838;-38
2021/07/06 02:17:44;;;;;;;1.60;1.50;;;19.00;99.90;;;;;;5049316;28;20424;-38
2021/07/06 02:20:13;;;;;;;3.00;1.40;;;19.00;99.90;;;;;;5049380;28;20861;-38
2021/07/06 02:22:41;;;;;;;1.90;1.80;;;19.00;99.90;;;;;;5069669;28;20447;-38
2021/07/06 02:25:07;;;;;;;1.60;1.50;;;19.00;99.90;;;;;;5069154;28;20777;-39
2021/07/06 02:27:34;;;;;;;2.10;1.50;;;19.00;99.90;;;;;;5045238;28;20425;-39
2021/07/06 02:29:59;;;;;;;2.40;1.50;;;19.00;99.90;;;;;;5048281;28;20416;-39
2021/07/06 02:32:25;;;;;;;1.30;1.20;;;18.90;99.90;;;;;;5047612;28;20424;-46
2021/07/06 02:34:51;;;;;;;1.80;1.70;;;18.90;99.90;;;;;;5048521;28;20185;-38
2021/07/06 02:37:16;;;;;;;2.73;1.67;;;18.90;99.90;;;;;;5049205;28;20255;-39
2021/07/06 02:39:42;;;;;;;6.03;2.17;;;18.90;99.90;;;;;;5049311;28;20186;-38
2021/07/06 02:42:08;;;;;;;4.00;1.53;;;18.90;99.90;;;;;;5042185;28;20210;-38
2021/07/06 02:44:33;;;;;;;1.57;1.47;;;18.90;99.90;;;;;;5045233;28;20186;-38
2021/07/06 02:46:59;;;;;;;1.60;1.50;;;18.90;99.90;;;;;;5048955;28;20192;-38
2021/07/06 02:49:25;;;;;;;1.87;1.40;;;18.90;99.90;;;;;;5048565;28;20665;-38
2021/07/06 02:51:50;;;;;;;1.60;1.37;;;18.90;99.90;;;;;;5047789;28;20182;-39
2021/07/06 02:54:16;;;;;;;2.90;1.47;;;18.90;99.90;;;;;;5048155;28;20202;-38
2021/07/06 02:56:42;;;;;;;1.73;1.30;;;19.00;99.90;;;;;;5042773;28;20451;-38
2021/07/06 02:59:07;;;;;;;1.50;1.40;;;18.90;99.90;;;;;;5042678;28;20591;-38
2021/07/06 03:01:33;;;;;;;1.90;1.40;;;18.90;99.90;;;;;;5047336;28;20216;-38
2021/07/06 03:03:59;;;;;;;1.60;1.50;;;19.00;99.90;;;;;;5047754;28;20545;-39
2021/07/06 03:06:27;;;;;;;3.67;1.57;;;19.00;99.90;;;;;;5048786;28;20192;-39
2021/07/06 03:08:55;;;;;;;1.30;1.20;;;19.00;99.90;;;;;;5048476;28;20336;-38
2021/07/06 03:11:22;;;;;;;2.10;1.33;;;19.00;99.90;;;;;;5047042;28;20433;-39
2021/07/06 03:13:48;;;;;;;1.70;1.50;;;19.10;99.90;;;;;;5041568;28;20954;-38
2021/07/06 03:16:13;;;;;;;1.67;1.50;;;19.00;99.90;;;;;;5048130;28;20416;-38
2021/07/06 03:18:39;;;;;;;1.87;1.37;;;19.00;99.90;;;;;;5048505;28;20185;-38
2021/07/06 03:21:05;;;;;;;3.90;1.60;;;19.10;99.90;;;;;;5048325;28;20205;-39
2021/07/06 03:23:31;;;;;;;4.40;1.73;;;19.10;99.90;;;;;;5047673;28;20185;-39
2021/07/06 03:25:56;;;;;;;2.20;1.17;;;19.00;99.90;;;;;;5047193;28;20186;-39
2021/07/06 03:28:22;;;;;;;1.53;1.43;;;19.10;99.90;;;;;;5037640;28;20194;-38
2021/07/06 03:30:48;;;;;;;1.87;1.40;;;19.10;99.90;;;;;;5046639;28;20197;-39
2021/07/06 03:33:14;;;;;;;2.17;1.70;;;19.10;99.90;;;;;;5047809;28;20704;-38
2021/07/06 03:35:39;;;;;;;2.53;1.70;;;19.20;99.90;;;;;;5047942;28;20431;-38
2021/07/06 03:38:06;;;;;;;1.67;1.27;;;19.20;99.90;;;;;;5048307;28;20185;-39
2021/07/06 03:40:32;;;;;;;1.40;1.30;;;19.20;99.90;;;;;;5048102;28;20757;-38
2021/07/06 03:42:58;;;;;;;1.67;1.57;;;19.20;99.90;;;;;;5038396;28;20432;-38
2021/07/06 03:45:25;;;;;;;1.63;1.20;;;19.20;99.90;;;;;;5047247;28;20472;-38
2021/07/06 03:47:51;;;;;;;1.73;1.40;;;19.20;99.90;;;;;;5047747;28;20424;-39
2021/07/06 03:50:19;;;;;;;1.90;1.63;;;19.20;99.90;;;;;;5048029;28;20428;-39
2021/07/06 03:52:57;;;;;;;2.60;1.40;;;19.20;99.90;;;;;;5047597;28;20467;-39
2021/07/06 03:55:24;;;;;;;2.83;1.60;;;19.20;99.90;;;;;;5047821;28;20436;-38
2021/07/06 03:57:50;;;;;;;1.47;1.27;;;19.30;99.90;;;;;;5042972;28;20525;-39
2021/07/06 04:00:22;;;;;;;1.70;1.50;;;19.30;99.90;;;;;;5042039;28;20495;-38
2021/07/06 04:02:48;;;;;;;2.70;1.60;;;19.30;99.90;;;;;;5046527;28;20184;-38
2021/07/06 04:05:14;;;;;;;1.47;1.37;;;19.30;99.90;;;;;;5047700;28;20765;-39
2021/07/06 04:07:41;;;;;;;3.80;1.30;;;19.30;99.90;;;;;;5046028;28;20444;-38
2021/07/06 04:10:09;;;;;;;1.83;1.40;;;19.30;99.90;;;;;;5047545;28;20931;-38
2021/07/06 04:12:36;;;;;;;1.70;1.60;;;19.40;99.90;;;;;;5038742;28;20444;-38
2021/07/06 04:15:05;;;;;;;2.30;2.10;;;19.40;99.90;;;;;;5039511;28;20420;-39
2021/07/06 04:17:31;;;;;;;2.17;1.23;;;19.50;99.90;;;;;;5031904;28;20785;-38
2021/07/06 04:19:56;;;;;;;3.80;1.63;;;19.50;99.90;;;;;;5066165;28;20415;-38
2021/07/06 04:22:22;;;;;;;1.37;1.10;;;19.50;99.90;;;;;;5053014;28;20273;-39
2021/07/06 04:24:48;;;;;;;2.73;1.10;;;19.60;99.90;;;;;;5066497;28;20203;-38
2021/07/06 04:27:14;;;;;;;2.63;1.50;;;19.50;99.90;;;;;;5056960;28;20492;-39
2021/07/06 04:29:39;;;;;;;4.33;1.57;;;19.60;99.90;;;;;;5040319;28;20221;-38
2021/07/06 04:32:05;;;;;;;3.77;2.40;;;19.60;99.90;;;;;;5047094;28;20247;-39
2021/07/06 04:34:31;;;;;;;2.90;1.30;;;19.60;99.90;;;;;;5046749;28;20194;-39
2021/07/06 04:36:56;;;;;;;2.33;1.47;;;19.70;99.90;;;;;;5046991;28;20500;-38
2021/07/06 04:39:22;;;;;;;3.40;1.30;;;19.70;99.90;;;;;;5047311;28;20547;-38
2021/07/06 04:41:48;;;;;;;2.07;1.30;;;19.70;99.90;;;;;;5046674;28;20205;-38
2021/07/06 04:44:14;;;;;;;2.30;1.53;;;19.70;99.90;;;;;;5035121;28;20198;-38
2021/07/06 04:46:41;;;;;;;1.60;1.50;;;19.80;99.90;;;;;;5046906;28;20612;-38
2021/07/06 04:49:08;;;;;;;1.83;1.33;;;19.80;99.90;;;;;;5046690;28;20432;-38
2021/07/06 04:51:34;;;;;;;5.67;2.67;;;19.80;99.90;;;;;;5046592;28;20424;-38
2021/07/06 04:54:00;;;;;;;2.30;1.53;;;19.80;99.90;;;;;;5044660;28;20926;-38
2021/07/06 04:56:27;;;;;;;1.63;1.27;;;19.90;99.90;;;;;;5051240;28;20642;-39
2021/07/06 04:58:53;;;;;;;3.00;1.40;;;19.90;99.90;;;;;;5040746;28;20995;-38
2021/07/06 05:01:19;;;;;;;2.40;1.30;;;19.90;99.90;;;;;;5046442;28;20460;-38
2021/07/06 05:03:47;;;;;;;5.33;1.80;;;19.90;99.90;;;;;;5044593;28;20448;-38
2021/07/06 05:06:13;;;;;;;1.87;1.77;;;19.90;99.90;;;;;;5046469;28;20698;-39
2021/07/06 05:08:39;;;;;;;2.03;1.30;;;19.90;99.90;;;;;;5025278;28;20859;-39
2021/07/06 05:11:04;;;;;;;1.93;1.50;;;20.00;99.90;;;;;;5044969;28;20235;-39
2021/07/06 05:13:31;;;;;;;2.00;1.57;;;20.00;99.90;;;;;;5035137;28;20441;-38
2021/07/06 05:15:56;;;;;;;5.20;1.40;;;20.00;99.90;;;;;;5040250;28;20189;-38
2021/07/06 05:18:22;;;;;;;3.17;1.63;;;20.00;99.90;;;;;;5046350;28;20513;-39
2021/07/06 05:20:48;;;;;;;2.20;1.40;;;20.00;99.90;;;;;;5046030;28;20220;-39
2021/07/06 05:23:13;;;;;;;3.53;1.40;;;20.00;99.90;;;;;;5045622;28;20185;-38
2021/07/06 05:25:39;;;;;;;2.80;1.93;;;20.00;99.90;;;;;;5051627;28;20220;-38
2021/07/06 05:28:05;;;;;;;2.00;1.77;;;20.00;99.90;;;;;;5052892;28;20271;-38
2021/07/06 05:30:31;;;;;;;1.47;1.37;;;20.00;99.90;;;;;;5041505;28;20190;-38
2021/07/06 05:32:58;;;;;;;2.80;1.40;;;20.00;99.90;;;;;;5038316;28;20210;-38
2021/07/06 05:35:24;;;;;;;2.30;1.33;;;20.00;99.90;;;;;;5052339;28;20228;-38
2021/07/06 05:37:49;;;;;;;1.93;1.67;;;20.00;99.90;;;;;;5045938;28;20467;-38
2021/07/06 05:40:15;;;;;;;2.37;1.63;;;20.00;99.90;;;;;;5045898;28;20467;-38
2021/07/06 05:42:42;;;;;;;1.57;1.27;;;19.90;99.90;;;;;;5042857;28;20242;-38
2021/07/06 05:45:09;;;;;;;2.93;2.03;;;19.90;99.90;;;;;;5026790;28;20435;-38
2021/07/06 05:47:39;;;;;;;2.37;1.90;;;19.80;99.90;;;;;;5045815;28;20792;-38
2021/07/06 05:50:07;;;;;;;2.20;1.90;;;19.80;99.90;;;;;;5032859;28;20428;-39
2021/07/06 05:52:33;;;;;;;3.93;2.00;;;19.80;99.90;;;;;;5044232;28;20791;-38
2021/07/06 05:55:01;;;;;;;2.60;1.80;;;19.80;99.90;;;;;;5051540;28;20481;-38
2021/07/06 05:57:30;;;;;;;2.60;1.90;;;19.80;99.90;;;;;;5044448;28;20424;-38
2021/07/06 06:00:00;;;;;;;2.70;1.80;;;19.70;99.90;;;;;;5038765;28;20563;-39
2021/07/06 06:02:26;;;;;;;2.10;1.70;;;19.70;99.90;;;;;;5043522;28;20911;-39
2021/07/06 06:04:52;;;;;;;5.37;2.13;;;19.60;99.90;;;;;;5045448;28;20579;-38
2021/07/06 06:07:18;;;;;;;3.80;1.90;;;19.60;99.90;;;;;;5044076;28;20524;-39
2021/07/06 06:09:43;;;;;;;5.63;2.40;;;19.50;99.90;;;;;;5045369;28;20190;-39
2021/07/06 06:12:10;;;;;;;2.30;2.00;;;19.50;99.90;;;;;;5045445;28;20277;-38
2021/07/06 06:14:37;;;;;;;2.40;2.00;;;19.40;99.90;;;;;;5038625;28;20411;-39
2021/07/06 06:17:03;;;;;;;2.67;2.03;;;19.40;99.90;;;;;;5044682;28;20474;-38
2021/07/06 06:19:28;;;;;;;3.20;2.17;;;19.40;99.90;;;;;;5053924;28;20844;-38
2021/07/06 06:21:54;;;;;;;2.83;2.07;;;19.30;99.90;;;;;;5053493;28;20460;-38
2021/07/06 06:24:20;;;;;;;2.60;1.87;;;19.30;99.90;;;;;;5046735;28;20198;-38
2021/07/06 06:26:47;;;;;;;3.53;2.33;;;19.30;99.90;;;;;;5048817;28;20178;-38
2021/07/06 06:29:13;;;;;;;2.17;1.70;;;19.20;99.90;;;;;;5039539;28;20215;-39
2021/07/06 06:31:38;;;;;;;2.10;1.90;;;19.20;99.90;;;;;;5027153;28;20424;-39
2021/07/06 06:34:04;;;;;;;2.17;1.70;;;19.20;99.90;;;;;;5048112;28;20236;-39
2021/07/06 06:36:30;;;;;;;2.20;1.60;;;19.20;99.90;;;;;;5048614;28;20194;-39
2021/07/06 06:38:55;;;;;;;1.90;1.67;;;19.20;99.90;;;;;;5049173;28;20197;-39
2021/07/06 06:41:21;;;;;;;1.87;1.40;;;19.20;99.90;;;;;;5049296;28;20700;-38
2021/07/06 06:43:47;;;;;;;1.43;1.30;;;19.20;99.90;;;;;;5040961;28;20194;-38
2021/07/06 06:46:12;;;;;;;2.43;1.37;;;19.10;99.90;;;;;;5041697;28;20217;-38
2021/07/06 06:48:38;;;;;;;1.17;1.07;;;19.10;99.90;;;;;;5048865;28;20189;-39
2021/07/06 06:51:04;;;;;;;1.67;0.90;;;19.10;99.90;;;;;;5049150;28;20193;-38
2021/07/06 06:53:29;;;;;;;3.97;1.10;;;19.10;99.90;;;;;;5048032;28;20221;-38
2021/07/06 06:55:55;;;;;;;3.00;1.30;;;19.00;99.90;;;;;;5048824;28;20182;-38
2021/07/06 06:58:21;;;;;;;2.90;1.17;;;18.90;99.90;;;;;;5045501;28;20760;-39
2021/07/06 07:00:47;;;;;;;2.17;1.53;;;18.90;99.90;;;;;;5044096;28;20712;-38
2021/07/06 07:03:12;;;;;;;2.03;1.30;;;18.90;99.90;;;;;;5047861;28;20197;-39
2021/07/06 07:05:38;;;;;;;1.37;1.27;;;18.90;99.90;;;;;;5048482;28;20564;-39
2021/07/06 07:08:04;;;;;;;1.37;1.23;;;18.90;99.90;;;;;;5048700;28;20274;-38
2021/07/06 07:10:30;;;;;;;2.53;1.50;;;18.90;99.90;;;;;;5048602;28;20190;-38
2021/07/06 07:12:56;;;;;;;1.47;1.20;;;18.90;99.90;;;;;;5046893;28;20432;-38
2021/07/06 07:15:23;;;;;;;1.27;1.17;;;18.90;99.90;;;;;;5038579;28;20544;-39
2021/07/06 07:17:48;;;;;;;3.80;1.53;;;18.80;99.90;;;;;;5048882;28;20424;-39
2021/07/06 07:20:14;;;;;;;1.73;1.40;;;18.80;99.90;;;;;;5047930;28;20490;-38
2021/07/06 07:22:42;;;;;;;1.57;1.33;;;18.80;99.90;;;;;;5047144;28;20194;-38
2021/07/06 07:25:08;;;;;;;1.80;1.47;;;18.80;99.90;;;;;;5047857;28;20807;-38
2021/07/06 07:27:34;;;;;;;3.17;1.53;;;18.70;99.90;;;;;;5048735;28;20486;-38
2021/07/06 07:29:59;;;;;;;4.67;2.10;;;18.60;99.90;;;;;;5037544;28;20436;-38
2021/07/06 07:32:25;;;;;;;2.30;2.10;;;18.50;99.90;;;;;;5047308;28;21106;-38
2021/07/06 07:34:51;;;;;;;1.90;1.70;;;18.50;99.90;;;;;;5050867;28;20185;-39
2021/07/06 07:37:19;;;;;;;2.07;1.97;;;18.40;99.90;;;;;;5048221;28;20536;-39
2021/07/06 07:39:44;;;;;;;2.10;1.90;;;18.40;99.90;;;;;;5048166;28;20251;-39
2021/07/06 07:42:11;;;;;;;1.97;1.77;;;18.40;99.90;;;;;;5046286;28;20496;-38
2021/07/06 07:44:37;;;;;;;2.17;1.87;;;18.40;99.90;;;;;;5036716;28;20277;-39
2021/07/06 07:47:03;;;;;;;2.00;1.63;;;18.50;99.90;;;;;;5039866;28;21009;-39
2021/07/06 07:49:28;;;;;;;2.30;1.40;;;18.60;99.90;;;;;;5047756;28;20424;-39
2021/07/06 07:51:54;;;;;;;1.70;1.20;;;18.70;99.90;;;;;;5047703;28;20760;-38
2021/07/06 07:54:20;;;;;;;1.60;1.50;;;18.70;99.90;;;;;;5047318;28;20190;-38
2021/07/06 07:56:46;;;;;;;1.87;1.60;;;18.70;99.90;;;;;;5047631;28;20190;-38
2021/07/06 07:59:12;;;;;;;1.73;1.63;;;18.70;99.90;;;;;;5042473;28;20818;-39
2021/07/06 08:01:38;;;;;;;1.70;1.60;;;18.70;99.90;;;;;;5037526;28;20455;-39
2021/07/06 08:04:04;;;;;;;2.70;2.00;;;18.70;99.90;;;;;;5046789;28;20700;-39
2021/07/06 08:06:30;;;;;;;2.03;1.53;;;18.70;99.90;;;;;;5047667;28;20428;-39
2021/07/06 08:08:56;;;;;;;1.50;1.40;;;18.70;99.90;;;;;;5047439;28;20498;-39
2021/07/06 08:11:22;;;;;;;2.93;1.50;;;18.80;99.90;;;;;;5047489;28;20494;-39
2021/07/06 08:13:48;;;;;;;2.43;2.00;;;18.80;99.90;;;;;;5044365;28;20227;-38
2021/07/06 08:16:14;;;;;;;5.20;1.60;;;18.90;99.90;;;;;;5037374;28;20620;-39
2021/07/06 08:18:40;;;;;;;2.10;1.90;;;18.90;99.90;;;;;;5047216;28;20779;-39
2021/07/06 08:21:06;;;;;;;1.63;1.50;;;19.00;99.90;;;;;;5047577;28;20221;-38
2021/07/06 08:23:32;;;;;;;1.60;1.50;;;19.00;99.90;;;;;;5046656;28;20189;-39
2021/07/06 08:25:58;;;;;;;2.50;1.30;;;19.00;99.90;;;;;;5047947;28;20428;-39
2021/07/06 08:28:26;;;;;;;2.47;1.60;;;19.00;99.90;;;;;;5046983;28;20678;-39
2021/07/06 08:30:53;;;;;;;1.73;1.63;;;19.10;99.90;;;;;;5032939;28;20467;-38
2021/07/06 08:33:19;;;;;;;1.63;1.53;;;19.10;99.90;;;;;;5046165;28;20485;-38
2021/07/06 08:35:46;;;;;;;1.90;1.67;;;19.10;99.90;;;;;;5047105;28;20424;-39
2021/07/06 08:38:15;;;;;;;1.90;1.70;;;19.10;99.90;;;;;;5046776;28;20436;-39
2021/07/06 08:40:42;;;;;;;2.20;1.50;;;19.10;99.90;;;;;;5047066;28;20535;-39
2021/07/06 08:43:08;;;;;;;1.60;1.47;;;19.20;99.90;;;;;;5046324;28;20436;-38
2021/07/06 08:45:34;;;;;;;1.70;1.57;;;19.20;99.90;;;;;;5039166;28;20515;-39
2021/07/06 08:48:00;;;;;;;5.80;1.83;;;19.20;99.90;;;;;;5046815;28;20174;-39
2021/07/06 08:50:27;;;;;;;1.60;1.50;;;19.20;99.90;;;;;;5025542;28;20432;-39
2021/07/06 08:52:53;;;;;;;2.17;1.37;;;19.30;99.90;;;;;;5043061;28;20537;-39
2021/07/06 08:55:20;;;;;;;3.37;1.53;;;19.40;99.90;;;;;;5046208;28;20889;-39
2021/07/06 08:57:47;;;;;;;1.77;1.67;;;19.50;99.90;;;;;;5046488;28;20467;-38
2021/07/06 09:00:15;;;;;;;1.50;1.40;;;19.50;99.90;;;;;;5036905;28;20472;-39
2021/07/06 09:02:41;;;;;;;1.43;1.33;;;19.50;99.90;;;;;;5044321;28;20417;-39
2021/07/06 09:05:20;;;;;;;1.70;1.60;;;19.60;99.90;;;;;;5044549;28;20428;-39
2021/07/06 09:07:45;;;;;;;2.50;1.47;;;19.60;99.90;;;;;;5046556;28;20448;-39
2021/07/06 09:10:16;;;;;;;2.00;1.53;;;19.60;99.90;;;;;;5046858;28;20531;-38
2021/07/06 09:12:44;;;;;;;1.40;1.30;;;19.60;99.90;;;;;;5044773;28;20198;-38
2021/07/06 09:15:31;;;;;;;1.73;1.40;;;19.60;99.90;;;;;;5038616;28;20438;-39
2021/07/06 09:18:07;;;;;;;2.53;1.20;;;19.60;99.90;;;;;;5040001;28;20451;-39
2021/07/06 09:20:33;;;;;;;4.50;1.30;;;19.60;99.90;;;;;;5045077;28;20506;-39
2021/07/06 09:23:23;;;;;;;2.50;1.30;;;19.70;99.90;;;;;;5045679;28;20815;-38
2021/07/06 09:26:12;;;;;;;1.60;1.20;;;19.70;99.90;;;;;;5033193;28;20496;-38
2021/07/06 09:28:40;;;;;;;1.97;1.20;;;19.80;99.90;;;;;;5045036;28;20474;-39
2021/07/06 09:31:31;;;;;;;1.50;1.33;;;19.90;99.90;;;;;;5038846;28;20432;-38
2021/07/06 09:34:04;;;;;;;1.23;1.10;;;19.90;99.90;;;;;;5045562;28;20540;-39
2021/07/06 09:36:42;;;;;;;1.43;1.30;;;19.90;99.90;;;;;;5046117;28;20427;-38
2021/07/06 09:39:31;;;;;;;2.00;1.40;;;19.90;99.90;;;;;;5046231;28;20511;-39
2021/07/06 09:41:59;;;;;;;3.97;1.50;;;19.90;99.90;;;;;;5045955;28;20472;-38
2021/07/06 09:44:27;;;;;;;1.50;1.40;;;19.90;99.90;;;;;;5044981;28;20499;-39
2021/07/06 09:47:18;;;;;;;2.07;1.20;;;20.00;99.90;;;;;;5035577;28;20496;-38
2021/07/06 09:49:54;;;;;;;2.03;1.53;;;20.00;99.90;;;;;;5045870;28;20447;-39
2021/07/06 09:52:21;;;;;;;2.33;1.50;;;20.00;99.90;;;;;;5045802;28;20768;-39
2021/07/06 09:54:49;;;;;;;1.60;1.50;;;20.00;99.90;;;;;;5045410;28;20507;-39
2021/07/06 09:57:24;;;;;;;1.80;1.60;;;20.00;99.90;;;;;;5045874;28;20438;-39
2021/07/06 09:59:53;;;;;;;3.47;1.63;;;20.00;99.90;;;;;;5042570;28;20811;-39
2021/07/06 10:02:23;;;;;;;1.73;1.47;;;20.00;99.90;;;;;;5042176;28;20555;-39
2021/07/06 10:04:53;;;;;;;1.30;1.20;;;20.10;99.90;;;;;;5044057;28;20426;-39
2021/07/06 10:07:23;;;;;;;2.30;1.17;;;20.10;99.90;;;;;;5049120;28;20424;-38
2021/07/06 10:09:50;;;;;;;1.57;1.47;;;20.10;99.90;;;;;;5050157;28;20459;-39
2021/07/06 10:12:17;;;;;;;1.30;1.20;;;20.10;99.90;;;;;;5049656;28;20875;-39
2021/07/06 10:14:44;;;;;;;1.53;1.40;;;20.00;99.90;;;;;;5048280;28;20424;-38
2021/07/06 10:17:11;;;;;;;1.47;1.20;;;20.10;99.90;;;;;;5038429;28;20423;-39
2021/07/06 10:19:38;;;;;;;1.83;1.30;;;20.00;99.90;;;;;;5049526;28;20458;-39
2021/07/06 10:22:06;;;;;;;1.30;1.20;;;20.00;99.90;;;;;;5049641;28;20831;-39
2021/07/06 10:24:39;;;;;;;1.80;1.37;;;20.10;99.90;;;;;;5048999;28;20485;-39
2021/07/06 10:27:07;;;;;;;1.33;1.23;;;20.10;99.90;;;;;;5049749;28;20427;-39
2021/07/06 10:29:37;;;;;;;1.30;1.00;;;20.10;99.90;;;;;;5049031;28;20977;-39
2021/07/06 10:32:04;;;;;;;1.20;1.10;;;20.20;99.90;;;;;;5038835;28;20438;-39
2021/07/06 10:34:40;;;;;;;2.17;1.30;;;20.20;99.90;;;;;;5047330;28;20423;-39
2021/07/06 10:37:28;;;;;;;1.40;1.10;;;20.20;99.90;;;;;;5049635;28;20488;-39
2021/07/06 10:39:54;;;;;;;1.53;1.07;;;20.20;99.90;;;;;;5048887;28;20796;-38
2021/07/06 10:42:36;;;;;;;1.00;1.00;;;20.20;99.90;;;;;;5049179;28;20460;-39
2021/07/06 10:45:34;;;;;;;1.93;1.10;;;20.30;99.90;;;;;;5048305;28;20194;-38
2021/07/06 10:48:00;;;;;;;1.00;1.00;;;20.30;99.90;;;;;;5047309;28;20980;-38
2021/07/06 10:50:32;;;;;;;2.10;1.33;;;20.40;99.90;;;;;;5048656;28;20421;-38
2021/07/06 10:53:18;;;;;;;2.90;1.17;;;20.40;99.90;;;;;;5048511;28;20695;-38
2021/07/06 10:55:45;;;;;;;1.63;1.00;;;20.50;99.90;;;;;;5035044;28;20927;-39
2021/07/06 10:58:31;;;;;;;1.17;1.07;;;20.60;99.90;;;;;;5048575;28;20420;-39
2021/07/06 11:00:57;;;;;;;2.13;1.27;;;20.70;99.90;;;;;;5043160;28;20474;-38
2021/07/06 11:03:24;;;;;;;3.50;0.90;;;21.00;99.90;;;;;;5043966;28;20561;-39
2021/07/06 11:05:49;;;;;;;1.63;1.30;;;21.20;99.90;;;;;;5048609;28;20769;-38
2021/07/06 11:08:41;;;;;;;1.60;0.97;;;21.30;99.90;;;;;;5047522;28;20509;-39
2021/07/06 11:11:08;;;;;;;1.03;1.00;;;21.50;99.90;;;;;;5048434;28;20197;-39
2021/07/06 11:13:33;;;;;;;1.33;1.23;;;21.60;99.90;;;;;;5046569;28;20421;-38
2021/07/06 11:16:03;;;;;;;1.40;1.20;;;21.60;99.90;;;;;;5042143;28;20993;-38
2021/07/06 11:18:34;;;;;;;1.90;1.07;;;21.60;99.90;;;;;;5044028;28;20186;-38
2021/07/06 11:21:00;;;;;;;2.20;1.00;;;21.50;99.90;;;;;;5047230;28;20468;-38
2021/07/06 11:23:33;;;;;;;1.50;1.10;;;21.50;99.90;;;;;;5047984;28;20436;-38
2021/07/06 11:26:04;;;;;;;1.30;1.20;;;21.50;99.90;;;;;;5048305;28;20185;-38
2021/07/06 11:28:31;;;;;;;1.90;1.30;;;21.50;99.90;;;;;;5048596;28;20770;-38
2021/07/06 11:30:59;;;;;;;2.80;1.33;;;21.60;99.90;;;;;;5042486;28;21093;-38
2021/07/06 11:33:31;;;;;;;1.07;1.00;;;21.70;99.90;;;;;;5043627;28;20420;-39
2021/07/06 11:36:16;;;;;;;1.00;0.90;;;21.70;99.90;;;;;;5038599;28;20427;-38
2021/07/06 11:38:44;;;;;;;3.10;0.80;;;21.70;99.90;;;;;;5048277;28;20432;-39
2021/07/06 11:41:12;;;;;;;1.83;0.90;;;22.00;99.90;;;;;;5046862;28;20816;-39
2021/07/06 11:43:39;;;;;;;1.20;1.00;;;22.10;99.90;;;;;;5047436;28;20427;-39
2021/07/06 11:46:15;;;;;;;1.10;0.83;;;22.30;99.90;;;;;;5042797;28;20964;-38
2021/07/06 11:48:43;;;;;;;3.87;0.87;;;22.40;99.90;;;;;;5037582;28;20453;-39
2021/07/06 11:51:14;;;;;;;1.30;0.90;;;22.50;99.90;;;;;;5047803;28;20477;-38
2021/07/06 11:53:59;;;;;;;1.57;0.97;;;22.50;99.90;;;;;;5047411;28;20527;-38
2021/07/06 11:56:27;;;;;;;1.00;0.87;;;22.40;99.90;;;;;;5047611;28;20454;-39
2021/07/06 11:58:53;;;;;;;0.83;0.80;;;22.40;99.90;;;;;;5047826;28;21017;-38
2021/07/06 12:01:20;;;;;;;0.67;0.67;;;22.30;99.90;;;;;;5041298;28;20506;-39
2021/07/06 12:03:46;;;;;;;1.93;1.00;;;22.30;99.90;;;;;;5039758;28;20490;-39
2021/07/06 12:06:14;;;;;;;1.00;0.87;;;22.30;99.90;;;;;;5047606;28;20428;-39
2021/07/06 12:08:41;;;;;;;1.27;0.80;;;22.20;99.90;;;;;;5046234;28;20455;-39
2021/07/06 12:11:14;;;;;;;3.87;0.90;;;22.20;99.90;;;;;;5047318;28;20436;-39
2021/07/06 12:13:39;;;;;;;1.60;1.17;;;22.30;99.90;;;;;;5046382;28;20436;-38
2021/07/06 12:16:17;;;;;;;1.00;0.90;;;22.30;99.90;;;;;;5043537;28;20433;-39
2021/07/06 12:19:10;;;;;;;1.37;0.87;;;22.20;99.90;;;;;;5044100;28;20556;-39
2021/07/06 12:21:44;;;;;;;2.70;0.80;;;22.10;99.90;;;;;;5047678;28;20495;-38
2021/07/06 12:24:16;;;;;;;1.17;0.97;;;21.90;99.90;;;;;;5045291;28;20420;-38
2021/07/06 12:26:48;;;;;;;1.47;1.00;;;21.80;99.90;;;;;;5046101;28;20417;-39
2021/07/06 12:29:26;;;;;;;2.30;0.70;;;21.80;99.90;;;;;;5046081;28;20452;-39
2021/07/06 12:31:51;;;;;;;0.90;0.70;;;21.80;99.90;;;;;;5040441;28;20493;-39
2021/07/06 12:34:18;;;;;;;2.10;0.70;;;21.80;99.90;;;;;;5041010;28;20429;-39
2021/07/06 12:36:57;;;;;;;2.40;1.10;;;21.80;99.90;;;;;;5047128;28;20305;-38
2021/07/06 12:39:34;;;;;;;3.33;0.90;;;22.00;99.90;;;;;;5046711;28;20516;-39
2021/07/06 12:42:02;;;;;;;2.93;0.83;;;22.10;99.90;;;;;;5034301;28;20463;-38
2021/07/06 12:44:34;;;;;;;3.27;0.80;;;22.20;99.90;;;;;;5046175;28;20421;-38
2021/07/06 12:47:40;;;;;;;3.53;0.90;;;22.40;99.90;;;;;;5040723;28;20468;-39
2021/07/06 12:50:26;;;;;;;1.10;0.87;;;22.50;99.90;;;;;;5044036;28;20927;-39
2021/07/06 12:52:57;;;;;;;1.20;0.90;;;22.60;99.90;;;;;;5043218;28;20412;-39